Timeline UpdatesTrip UpdatesNews PostsPvt PostsTravel TipsAdmin PostsConv PostsFollowed PostsChat RequestsBlog PostsPNR Posts

Disclaimer
Search
 
 
Sat Apr 19, 2014 07:27:20 ISTHomeTrainsΣChainsAtlasPNRForumGalleryNewsFAQTripsMembersLoginFeedback
No Recent News for this Train
Other Trains in the News **new
Latest...
Temporary Augmentation of 1 GS coach from 4/2/14-31/3/14 #982250
Sun Feb 02, 2014 (02:25PM)
⇐ Return Journey: Train# 15707

15708/Amrapali Express

Feb 22 2014 (1:17PM)
Change Departure Station:
Change Arrival Station:
Post a Train Travel TipPost a Train Travel Tip **new
Post a Comment/Question/Picture/VideoPost a Comment/Question/Picture/Video
Pantry/Catering
✕ NO Pantry Car
✕ NO Catering
RSA - Rake Sharing
This train has 5 rakes in all, and has on-board cleaning system available. ; Charging points available in AC-2 tier, one in each coupe.
Rake/Coach Composition
LOCO«SLR-GN-GN-GN-GN-Gn-S9-S8-S7-S6-S5-S4-S3-S2-S1-B1-A1-GN-GN-GN-GN-SLR=22 Coach Train. S9 becomes S1 in UP train.
Loco
ASR-LKO> CNB WAP4; LKO-KIR> SGUJ WDP4
News    PNR    Forum    Time-Table    Availability    Fare Chart    Map    Arr/Dep History    Trips    Gallery    ΣChains    X/O    Timeline    
Travel Time: 24h 55m    25 halts    Distance: 1269 km    Avg Speed: 50 km/hr
Type: Mail/Express
Zone: NFR/Northeast Frontier
Departs @ 12:00 (Avg on time)
Platform# 6
SMTWTFS
Ambala Cantt. Junction/UMB 
Arrives @ 12:55 +1 night (Avg 3h 2m late)
Platform# 3
SMTWTFS
Muzaffarpur Junction/MFP 

25 halts. 203 intermediate Stations between Ambala Cantt. Junction and Muzaffarpur Junction

Show ALL intermediate Stations  Show Old Time-Table

#CodeStation NameX/OArrivesAvgDepartsAvgHaltPFDay#KmSpeedElevZoneAddress
1ASRAmritsar Junction (5)  -07:15+231-249.682233mNRAmritsar 143002, Punjab
2JNLJandiala (2)X  07:29+1107:31+112m21-230.484238mNRJandiala, Punjab
3BEASBeas Junction (2)  07:48+1307:50+132m21-206.561238mNRBeas, Punjab
4KREKartarpur (2)X  08:11+1008:13+102m11-185.152236mNRKartarpur, Punjab
5JUCJalandhar City Junction (5)X  08:30+708:35+85m21-170.426239mNRJalandhar 144001, Punjab
6JRCJalandhar Cantt. Junction (3)  08:46+708:48+72m21-165.665239mNRNear Rama Mandi, Punjab
7PGWPhagwara Junction (3)X  09:03+709:05+72m11-149.359245mNRPhagwara, Punjab
8GRYGoraya (2)X  09:15+809:17+72m11-139.469240mNRGoraya, Punjab
9PHRPhillaur Junction (3)X  09:28+809:30+82m11-126.752246mNRPhillaur, Punjab
10LDHLudhiana Junction (7)X  09:45+809:55+1210m11-113.657246mNRLudhiana 141001, Punjab
11KNNKhanna (3)X  10:40+610:42+72m21-70.867269mNRNH 1, Punjab
12SIRSirhind Junction (3)  10:58+611:00+62m21-52.983271mNRSirhind, Punjab
13RPJRajpura Junction (3)11:18+811:20+82m21-28.148272mNRNH-1, Punjab
14UMB»Ambala Cantt. Junction (7)»  11:55+012:00+05m610.081278mNRAmbala 133001, Haryana
15KUNKarnal (3)X12:56+1512:58+152m1175.274253mNRKarnal, Haryana
16PNPPanipat Junction (5)  13:26+1313:28+132m11109.685235mNRPanipat, Haryana
17SNPSonipat (3)X14:00+1714:02+182m11154.769225mNRSonipat, Haryana
18SZMDelhi Sabzi Mandi (2)14:37+2014:39+212m--1195.17220mNRGulabi Bagh, Delhi NCT
19DLIOld Delhi Junction (16)XO  15:05+1415:20+1515m111198.158219mNRNear Chandni Chowk Metro Station, Delhi NCT
20KRJKhurja Junction (4)X16:45+1:1116:47+1:182m--1280.8109199mNCRBulandshahr, Uttar Pradesh
21ALJNAligarh Junction (4)XO  17:11+1:5617:16+1:565m21324.339192mNCRAligarh, Uttar Pradesh
22HRSHathras Junction (3)X  18:02+1:5418:04+1:542m21354.561183mNCRMahamaya Nagar(05722-242803), Uttar Pradesh
23TDLTundla Junction (4)XO  18:51+2:1818:56+2:215m--1402.541167mNCRDistt.Firozabad, Uttar Pradesh
24FZDFirozabad (4)X  19:20+2:2019:22+2:252m21419.055164mNCRFirozabad, Uttar Pradesh
25ETWEtawah (5)XO  20:44+2:0720:46+2:102m31494.370154mNCRDistt. Etawah, Uttar Pradesh
26CNBKanpur Central (10)X  22:45+2:1123:00+2:1215m--1633.650128mNCRKanpur, Uttar Pradesh
27ONUnnao Junction (5)X  23:21+2:1623:23+2:172m--1651.053129mNRUnnao, Uttar Pradesh
28LKOLucknow Charbagh (9)X  00:25+2:1500:50+2:1325m32705.638123mNRCharbagh, Uttar Pradesh
29BBKBarabanki Junction (4)  01:35+2:0701:37+2:082m--2734.269122mNRPin-225001, Uttar Pradesh
30GDGonda Junction (3)X  02:55+2:3103:00+2:315m22823.580110mNERGonda 271001, Uttar Pradesh
31MURMankapur Junction (5)X03:21+2:2903:23+2:352m--2851.486104mNERDistrict Gonda, Uttar Pradesh
32BSTBasti (4)  04:05+2:3504:10+2:355m--2911.98490mNERBasti 272001, Uttar Pradesh
33KLDKhalilabad (3)X  04:31+2:3804:33+2:382m--2941.42886mNERKhalilabad- 272175, Uttar Pradesh
34GKPGorakhpur Junction (10)  05:45+2:1006:00+2:0915m72975.46484mNERGorakhpur 273001, Uttar Pradesh
35DEOSDeoria Sadar (3)X  06:46+2:4406:48+2:492m221024.55179mNERDeoria- 274001, Uttar Pradesh
36SVSiwan Junction (4)  08:10+2:4008:15+2:405m121094.04170mNERSiwan, Bihar
37CPRChhapra Junction (6)X  09:45+2:1010:05+2:1120m--21155.26458mNERDistt: Saran, Bihar
38SEESonpur Junction (4)X  10:56+2:4611:03+3:057m--21209.22556mECRSaran, Bihar
39HJPHajipur Junction (3)X  11:16+3:0511:18+3:162m--21214.73355mECR06224-272230, Bihar
40MFP•Muzaffarpur Junction (6)•  12:55+3:0213:05+3:0210m321268.67257mECRMuzaffarpur, Bihar
41DOLDholi (2)X  13:26+3:1513:28+3:152m--21293.76752mECRDistt. Muzaffarpur, Bihar
42KRBPKhudiram B Pusa  13:40+3:1813:42+3:182m--21307.13652mECRDistt. Samastipur, Bihar
43SPJSamastipur Junction (9)  14:05+3:2514:13+3:258m--21320.74255mECRSamastipur, Bihar
44BJUBarauni Junction (9)  15:25+3:4215:35+3:4210m521371.340 ECRBegusarai, Bihar
45BGSBegu Sarai (2)  15:55+3:4615:57+3:472m221384.744 ECR06243-222853, Bihar
46KGGKhagaria Junction (3)  16:51+3:3416:53+3:352m221424.64843mECR06244-223596, Bihar
47MNEMansi Junction (3)X  17:04+3:3517:06+3:352m--21433.44143mECR06244-233234, Bihar
48THBThana Bihpur JunctionX  18:08+3:2818:10+3:282m--21475.44839mECRThana Bihpur, Bihar
49NNANaugachiaX  18:30+3:2318:32+3:232m--21491.34637mECRBhagalpur, Bihar
50KUEKursela  18:56+3:1918:58+3:192m--21509.83431mECRNH 31, Bihar
51CRRKaragola RoadX  19:28+3:0619:30+3:062m--21526.83336mECRLachhmipur, Bihar
52KIRKatihar Junction (7)  20:10+3:54-121549.1-35mNFR854105., Bihar
Scroll to Top
Scroll to Bottom